SBJU/JDO METAR and TAF weather

Enter ICAO airport designator
Station Type Date Time Source
SBJU METAR 2021/10/22 13:00 UTC NOAA

SBJU 221300Z 05005KT 9999 SCT020 30/19 Q1016


Station Type Date Time Source
SBJU Decoded METAR 2021/10/22 13:00 UTC NOAA

Station name not available
Oct 22, 2021 - 09:00 AM EDT / 2021.10.22 1300 UTC
Wind: from the NE (050 degrees) at 6 MPH (5 KT):0
Visibility: greater than 7 mile(s):0
Sky conditions: partly cloudy
Temperature: 86 F (30 C)
Dew Point: 66 F (19 C)
Relative Humidity: 51%
Pressure (altimeter): 30.00 in. Hg (1016 hPa)
ob: SBJU 221300Z 05005KT 9999 SCT020 30/19 Q1016
cycle: 13

Station Type Date Time Source
SBJU TAF 2011/11/01 00:05 UTC NOAA

TAF SBJU 012200Z 0200/0212 00000KT 9999 SCT020 TX28/0200Z TN24/0207Z
BECMG 0210/0212 06005KT
RMK PCE

Example: see airport list